AEE34 LGAV-EDDH
Flight info
| Callsign | AEE34 |
|---|---|
| Flight time | 3h 6m |
| Altitude | 38000 |
| Route | KOR1N KOR UL53 ELVAS DCT DIMIS DCT INLOT DCT RETRA DCT POD DCT NILKU DCT GUBOK DCT VEBAL DCT SASAL DCT PISAM DCT LALUK DCT MILGU DCT SOGMA M748 RARUP RARUP6A |
| Aircraft | A32N/M-V/N |
Departure
| Time | 2026-05-05 09:15 |
|---|---|
| Airport | Athens Eleftherios Venizelos International Airport (LGAV) |
Arrival
| Time | 2026-05-05 12:21 |
|---|---|
| Airport | Hamburg Helmut Schmidt Airport (EDDH) |
| Time | Latitude | Longitude | Altitude | Speed | Heading |
|---|---|---|---|---|---|
| 2026-05-05 08:28 | 37.93656 | 23.94887 | 295 ft | 0 kts | 320° |
| 2026-05-05 09:04 | 37.93653 | 23.94890 | 290 ft | 2 kts | 320° |
| 2026-05-05 09:05 | 37.93633 | 23.94912 | 292 ft | 3 kts | 320° |
| 2026-05-05 09:05 | 37.93613 | 23.94934 | 293 ft | 4 kts | 322° |
| 2026-05-05 09:05 | 37.93596 | 23.94949 | 293 ft | 4 kts | 338° |
| 2026-05-05 09:05 | 37.93575 | 23.94958 | 293 ft | 1 kts | 342° |
| 2026-05-05 09:06 | 37.93571 | 23.94959 | 293 ft | 0 kts | 342° |
| 2026-05-05 09:07 | 37.93572 | 23.94960 | 290 ft | 1 kts | 355° |
| 2026-05-05 09:08 | 37.93609 | 23.94978 | 293 ft | 8 kts | 27° |
| 2026-05-05 09:08 | 37.93674 | 23.95033 | 291 ft | 14 kts | 35° |
| 2026-05-05 09:08 | 37.93757 | 23.95117 | 293 ft | 16 kts | 43° |
| 2026-05-05 09:08 | 37.93840 | 23.95196 | 295 ft | 12 kts | 49° |
| 2026-05-05 09:09 | 37.93888 | 23.95299 | 297 ft | 15 kts | 63° |
| 2026-05-05 09:09 | 37.93954 | 23.95420 | 297 ft | 18 kts | 39° |
| 2026-05-05 09:09 | 37.94040 | 23.95500 | 298 ft | 14 kts | 39° |
| 2026-05-05 09:09 | 37.94129 | 23.95591 | 297 ft | 18 kts | 38° |
| 2026-05-05 09:10 | 37.94238 | 23.95695 | 302 ft | 21 kts | 35° |
| 2026-05-05 09:10 | 37.94361 | 23.95815 | 302 ft | 24 kts | 39° |
| 2026-05-05 09:10 | 37.94490 | 23.95936 | 302 ft | 23 kts | 39° |
| 2026-05-05 09:10 | 37.94555 | 23.96000 | 302 ft | 2 kts | 38° |
| 2026-05-05 09:11 | 37.94580 | 23.96025 | 303 ft | 7 kts | 38° |
| 2026-05-05 09:11 | 37.94605 | 23.96092 | 303 ft | 10 kts | 92° |
| 2026-05-05 09:11 | 37.94603 | 23.96181 | 304 ft | 11 kts | 62° |
| 2026-05-05 09:11 | 37.94669 | 23.96246 | 305 ft | 14 kts | 35° |
| 2026-05-05 09:12 | 37.94773 | 23.96347 | 306 ft | 26 kts | 38° |
| 2026-05-05 09:12 | 37.94957 | 23.96524 | 309 ft | 40 kts | 37° |
| 2026-05-05 09:12 | 37.95210 | 23.96762 | 312 ft | 44 kts | 36° |
| 2026-05-05 09:12 | 37.95283 | 23.96926 | 313 ft | 16 kts | 130° |
| 2026-05-05 09:13 | 37.95168 | 23.96989 | 314 ft | 20 kts | 222° |
| 2026-05-05 09:13 | 37.95055 | 23.96889 | 313 ft | 21 kts | 217° |
| 2026-05-05 09:13 | 37.95030 | 23.96865 | 313 ft | 0 kts | 216° |
| 2026-05-05 09:14 | 37.94806 | 23.96654 | 308 ft | 87 kts | 217° |
| 2026-05-05 09:14 | 37.94105 | 23.95991 | 301 ft | 159 kts | 216° |
| 2026-05-05 09:14 | 37.93145 | 23.95079 | 822 ft | 175 kts | 217° |
| 2026-05-05 09:15 | 37.92180 | 23.94117 | 1632 ft | 181 kts | 220° |
| 2026-05-05 09:15 | 37.91137 | 23.93275 | 2539 ft | 186 kts | 211° |
| 2026-05-05 09:15 | 37.89897 | 23.92497 | 3144 ft | 210 kts | 207° |
| 2026-05-05 09:15 | 37.88521 | 23.91681 | 3744 ft | 232 kts | 207° |
| 2026-05-05 09:16 | 37.87002 | 23.90744 | 4380 ft | 251 kts | 208° |
| 2026-05-05 09:16 | 37.85418 | 23.89718 | 5282 ft | 259 kts | 208° |
| 2026-05-05 09:16 | 37.83838 | 23.88669 | 6262 ft | 265 kts | 209° |
| 2026-05-05 09:16 | 37.82184 | 23.87563 | 7309 ft | 271 kts | 209° |
| 2026-05-05 09:17 | 37.80514 | 23.86439 | 8541 ft | 274 kts | 209° |
| 2026-05-05 09:17 | 37.78852 | 23.85319 | 9827 ft | 278 kts | 209° |
| 2026-05-05 09:17 | 37.77128 | 23.84158 | 10940 ft | 284 kts | 209° |
| 2026-05-05 09:17 | 37.75381 | 23.82985 | 12049 ft | 290 kts | 210° |
| 2026-05-05 09:18 | 37.73559 | 23.81764 | 13166 ft | 296 kts | 210° |
| 2026-05-05 09:18 | 37.71749 | 23.80558 | 14224 ft | 301 kts | 211° |
| 2026-05-05 09:18 | 37.69882 | 23.79317 | 15276 ft | 303 kts | 211° |
| 2026-05-05 09:18 | 37.68005 | 23.78070 | 16324 ft | 306 kts | 211° |
| 2026-05-05 09:19 | 37.66109 | 23.76809 | 17332 ft | 310 kts | 211° |
| 2026-05-05 09:19 | 37.64231 | 23.75560 | 18343 ft | 313 kts | 212° |
| 2026-05-05 09:19 | 37.62290 | 23.74270 | 19166 ft | 319 kts | 212° |
| 2026-05-05 09:19 | 37.60305 | 23.72949 | 19945 ft | 325 kts | 212° |
| 2026-05-05 09:20 | 37.58283 | 23.71606 | 20733 ft | 331 kts | 212° |
| 2026-05-05 09:20 | 37.56312 | 23.70174 | 21493 ft | 332 kts | 223° |
| 2026-05-05 09:20 | 37.54792 | 23.68049 | 22254 ft | 325 kts | 246° |
| 2026-05-05 09:20 | 37.54040 | 23.65423 | 23039 ft | 317 kts | 265° |
| 2026-05-05 09:21 | 37.53667 | 23.62665 | 23841 ft | 320 kts | 267° |
| 2026-05-05 09:21 | 37.53305 | 23.59886 | 24541 ft | 323 kts | 267° |
| 2026-05-05 09:21 | 37.52933 | 23.57123 | 25224 ft | 326 kts | 266° |
| 2026-05-05 09:21 | 37.52537 | 23.54289 | 25889 ft | 329 kts | 266° |
| 2026-05-05 09:22 | 37.52134 | 23.51481 | 26555 ft | 333 kts | 266° |
| 2026-05-05 09:22 | 37.51716 | 23.48601 | 27234 ft | 336 kts | 266° |
| 2026-05-05 09:22 | 37.51302 | 23.45771 | 27861 ft | 339 kts | 266° |
| 2026-05-05 09:22 | 37.51086 | 23.44288 | 28182 ft | 341 kts | 266° |
| 2026-05-05 09:23 | 37.50948 | 23.43343 | 28386 ft | 342 kts | 266° |
| 2026-05-05 09:23 | 37.50573 | 23.40791 | 28906 ft | 344 kts | 266° |
| 2026-05-05 09:23 | 37.50173 | 23.38067 | 29476 ft | 347 kts | 266° |
| 2026-05-05 09:23 | 37.49758 | 23.35238 | 30025 ft | 350 kts | 266° |
| 2026-05-05 09:24 | 37.49312 | 23.32220 | 30548 ft | 353 kts | 266° |
| 2026-05-05 09:24 | 37.48899 | 23.29423 | 31051 ft | 354 kts | 266° |
| 2026-05-05 09:24 | 37.48738 | 23.26438 | 31543 ft | 345 kts | 281° |
| 2026-05-05 09:24 | 37.49260 | 23.23637 | 31987 ft | 339 kts | 297° |
| 2026-05-05 09:25 | 37.50436 | 23.21102 | 32465 ft | 335 kts | 311° |
| 2026-05-05 09:25 | 37.52068 | 23.19171 | 32952 ft | 335 kts | 325° |
| 2026-05-05 09:25 | 37.54048 | 23.17814 | 33371 ft | 339 kts | 333° |
| 2026-05-05 09:26 | 37.57649 | 23.15617 | 33549 ft | 358 kts | 333° |
| 2026-05-05 09:26 | 37.61093 | 23.13489 | 33696 ft | 375 kts | 333° |
| 2026-05-05 09:26 | 37.63474 | 23.12012 | 33810 ft | 386 kts | 333° |
| 2026-05-05 09:27 | 37.65914 | 23.10499 | 33926 ft | 396 kts | 333° |
| 2026-05-05 09:27 | 37.68412 | 23.08949 | 34281 ft | 398 kts | 333° |
| 2026-05-05 09:27 | 37.70871 | 23.07424 | 34740 ft | 398 kts | 332° |
| 2026-05-05 09:27 | 37.72901 | 23.06163 | 35119 ft | 397 kts | 332° |
| 2026-05-05 09:28 | 37.75309 | 23.04666 | 35559 ft | 396 kts | 332° |
| 2026-05-05 09:28 | 37.77729 | 23.03160 | 35983 ft | 396 kts | 332° |
| 2026-05-05 09:28 | 37.80097 | 23.01685 | 36400 ft | 395 kts | 332° |
| 2026-05-05 09:28 | 37.82560 | 23.00150 | 36837 ft | 395 kts | 332° |
| 2026-05-05 09:29 | 37.85021 | 22.98614 | 37260 ft | 394 kts | 332° |
| 2026-05-05 09:29 | 37.87482 | 22.97078 | 37700 ft | 393 kts | 332° |
| 2026-05-05 09:29 | 37.89913 | 22.95506 | 37947 ft | 392 kts | 328° |
| 2026-05-05 09:30 | 37.94085 | 22.91304 | 38006 ft | 390 kts | 314° |
| 2026-05-05 09:30 | 37.97337 | 22.85783 | 38009 ft | 392 kts | 307° |
| 2026-05-05 09:31 | 38.00270 | 22.80459 | 38008 ft | 392 kts | 307° |
| 2026-05-05 09:31 | 38.03391 | 22.74795 | 38012 ft | 393 kts | 307° |
| 2026-05-05 09:32 | 38.06515 | 22.69104 | 38017 ft | 393 kts | 307° |
| 2026-05-05 09:32 | 38.09591 | 22.63490 | 38013 ft | 393 kts | 307° |
| 2026-05-05 09:33 | 38.12699 | 22.57810 | 38015 ft | 393 kts | 307° |
| 2026-05-05 09:33 | 38.15805 | 22.52123 | 38020 ft | 393 kts | 307° |
| 2026-05-05 09:34 | 38.18927 | 22.46398 | 38134 ft | 393 kts | 307° |
| 2026-05-05 09:34 | 38.20178 | 22.44100 | 38312 ft | 394 kts | 306° |
| 2026-05-05 09:34 | 38.20857 | 22.42853 | 38397 ft | 394 kts | 306° |
| 2026-05-05 09:35 | 38.22218 | 22.40349 | 38373 ft | 393 kts | 306° |
| 2026-05-05 09:35 | 38.25239 | 22.34787 | 38120 ft | 393 kts | 306° |
| 2026-05-05 09:35 | 38.26803 | 22.31907 | 38121 ft | 395 kts | 306° |
| 2026-05-05 09:36 | 38.29917 | 22.26160 | 38120 ft | 394 kts | 306° |
| 2026-05-05 09:36 | 38.33001 | 22.20456 | 38124 ft | 395 kts | 306° |
| 2026-05-05 09:37 | 38.36110 | 22.14695 | 38130 ft | 395 kts | 306° |
| 2026-05-05 09:37 | 38.39216 | 22.08930 | 38131 ft | 395 kts | 306° |
| 2026-05-05 09:38 | 38.41527 | 22.04633 | 38127 ft | 396 kts | 306° |
| 2026-05-05 09:38 | 38.45052 | 21.98070 | 38139 ft | 397 kts | 306° |
| 2026-05-05 09:39 | 38.48160 | 21.92269 | 38144 ft | 397 kts | 306° |
| 2026-05-05 09:39 | 38.51388 | 21.86569 | 38135 ft | 394 kts | 312° |
| 2026-05-05 09:40 | 38.55459 | 21.81907 | 38134 ft | 394 kts | 324° |
| 2026-05-05 09:40 | 38.60131 | 21.78206 | 38135 ft | 396 kts | 327° |
| 2026-05-05 09:41 | 38.64808 | 21.74507 | 38128 ft | 395 kts | 327° |
| 2026-05-05 09:41 | 38.69471 | 21.70827 | 38133 ft | 396 kts | 327° |
| 2026-05-05 09:42 | 38.73970 | 21.67275 | 38126 ft | 395 kts | 327° |
| 2026-05-05 09:42 | 38.78595 | 21.63617 | 38129 ft | 395 kts | 327° |
| 2026-05-05 09:43 | 38.83257 | 21.59924 | 38130 ft | 396 kts | 327° |
| 2026-05-05 09:43 | 38.87871 | 21.56258 | 38130 ft | 394 kts | 327° |
| 2026-05-05 09:44 | 38.92492 | 21.52585 | 38131 ft | 395 kts | 327° |
| 2026-05-05 09:44 | 38.97169 | 21.48862 | 38130 ft | 394 kts | 327° |
| 2026-05-05 09:45 | 39.01796 | 21.45172 | 38129 ft | 396 kts | 326° |
| 2026-05-05 09:45 | 39.06442 | 21.41460 | 38131 ft | 394 kts | 326° |
| 2026-05-05 09:46 | 39.11014 | 21.37803 | 38135 ft | 396 kts | 326° |
| 2026-05-05 09:46 | 39.15659 | 21.34082 | 38131 ft | 394 kts | 326° |
| 2026-05-05 09:47 | 39.20312 | 21.30349 | 38135 ft | 395 kts | 326° |
| 2026-05-05 09:47 | 39.24900 | 21.26661 | 38139 ft | 396 kts | 326° |
| 2026-05-05 09:48 | 39.29534 | 21.22932 | 38135 ft | 393 kts | 326° |
| 2026-05-05 09:48 | 39.34164 | 21.19201 | 38129 ft | 392 kts | 326° |
| 2026-05-05 09:49 | 39.38804 | 21.15453 | 38137 ft | 395 kts | 326° |
| 2026-05-05 09:49 | 39.43448 | 21.11697 | 38139 ft | 395 kts | 326° |
| 2026-05-05 09:50 | 39.48121 | 21.07912 | 38137 ft | 395 kts | 326° |
| 2026-05-05 09:50 | 39.52761 | 21.04148 | 38146 ft | 395 kts | 326° |
| 2026-05-05 09:51 | 39.57401 | 21.00377 | 38147 ft | 396 kts | 326° |
| 2026-05-05 09:51 | 39.61290 | 20.97211 | 38159 ft | 397 kts | 326° |
| 2026-05-05 09:52 | 39.66723 | 20.92784 | 38158 ft | 395 kts | 326° |
| 2026-05-05 09:52 | 39.71309 | 20.89040 | 38159 ft | 395 kts | 325° |
| 2026-05-05 09:53 | 39.75185 | 20.85870 | 38156 ft | 395 kts | 325° |
| 2026-05-05 09:53 | 39.79833 | 20.82064 | 38156 ft | 395 kts | 325° |
| 2026-05-05 09:54 | 39.85242 | 20.77626 | 38155 ft | 395 kts | 325° |
| 2026-05-05 09:54 | 39.89853 | 20.73837 | 38141 ft | 395 kts | 325° |
| 2026-05-05 09:55 | 39.93719 | 20.70656 | 38134 ft | 395 kts | 325° |
| 2026-05-05 09:55 | 39.98364 | 20.66826 | 38126 ft | 396 kts | 325° |
| 2026-05-05 09:56 | 40.03015 | 20.62986 | 38116 ft | 396 kts | 325° |
| 2026-05-05 09:56 | 40.07717 | 20.59245 | 38116 ft | 398 kts | 329° |
| 2026-05-05 09:57 | 40.12729 | 20.56308 | 38112 ft | 400 kts | 332° |
| 2026-05-05 09:57 | 40.17803 | 20.53355 | 38108 ft | 400 kts | 332° |
| 2026-05-05 09:58 | 40.22898 | 20.50384 | 38112 ft | 400 kts | 332° |
| 2026-05-05 09:58 | 40.27972 | 20.47425 | 38109 ft | 400 kts | 332° |
| 2026-05-05 09:59 | 40.32882 | 20.44554 | 38105 ft | 400 kts | 332° |
| 2026-05-05 09:59 | 40.38054 | 20.41528 | 38109 ft | 399 kts | 332° |
| 2026-05-05 10:00 | 40.43096 | 20.38573 | 38104 ft | 399 kts | 332° |
| 2026-05-05 10:00 | 40.48177 | 20.35589 | 38109 ft | 399 kts | 332° |
| 2026-05-05 10:01 | 40.53249 | 20.32604 | 38117 ft | 400 kts | 332° |
| 2026-05-05 10:01 | 40.58335 | 20.29607 | 38112 ft | 401 kts | 332° |
| 2026-05-05 10:02 | 40.63424 | 20.26604 | 38111 ft | 401 kts | 332° |
| 2026-05-05 10:02 | 40.68478 | 20.23617 | 38112 ft | 401 kts | 332° |
| 2026-05-05 10:03 | 40.73564 | 20.20605 | 38111 ft | 401 kts | 332° |
| 2026-05-05 10:03 | 40.78646 | 20.17591 | 38113 ft | 401 kts | 332° |
| 2026-05-05 10:04 | 40.83730 | 20.14570 | 38103 ft | 401 kts | 332° |
| 2026-05-05 10:04 | 40.88785 | 20.11561 | 38113 ft | 401 kts | 332° |
| 2026-05-05 10:05 | 40.93862 | 20.08535 | 38114 ft | 400 kts | 332° |
| 2026-05-05 10:05 | 40.98940 | 20.05504 | 38112 ft | 400 kts | 332° |
| 2026-05-05 10:06 | 41.04014 | 20.02468 | 38112 ft | 401 kts | 332° |
| 2026-05-05 10:06 | 41.09092 | 19.99426 | 38113 ft | 400 kts | 332° |
| 2026-05-05 10:07 | 41.14143 | 19.96394 | 38105 ft | 400 kts | 331° |
| 2026-05-05 10:07 | 41.19219 | 19.93342 | 38122 ft | 401 kts | 331° |
| 2026-05-05 10:08 | 41.24271 | 19.90300 | 38123 ft | 401 kts | 331° |
| 2026-05-05 10:08 | 41.29377 | 19.87220 | 38127 ft | 401 kts | 331° |
| 2026-05-05 10:09 | 41.34418 | 19.84173 | 38123 ft | 401 kts | 331° |
| 2026-05-05 10:09 | 41.39492 | 19.81102 | 38126 ft | 401 kts | 331° |
| 2026-05-05 10:10 | 41.44574 | 19.78020 | 38140 ft | 401 kts | 331° |
| 2026-05-05 10:10 | 41.49632 | 19.74948 | 38136 ft | 402 kts | 331° |
| 2026-05-05 10:11 | 41.54724 | 19.71848 | 38140 ft | 403 kts | 331° |
| 2026-05-05 10:11 | 41.59825 | 19.68739 | 38129 ft | 403 kts | 331° |
| 2026-05-05 10:12 | 41.64923 | 19.65627 | 38135 ft | 403 kts | 331° |
| 2026-05-05 10:12 | 41.69990 | 19.62528 | 38130 ft | 403 kts | 330° |
| 2026-05-05 10:13 | 41.75087 | 19.59405 | 38128 ft | 403 kts | 330° |
| 2026-05-05 10:13 | 41.80177 | 19.56280 | 38131 ft | 403 kts | 330° |
| 2026-05-05 10:14 | 41.85272 | 19.53147 | 38130 ft | 403 kts | 330° |
| 2026-05-05 10:14 | 41.90340 | 19.50025 | 38128 ft | 403 kts | 330° |
| 2026-05-05 10:15 | 41.95443 | 19.46877 | 38129 ft | 404 kts | 330° |
| 2026-05-05 10:15 | 42.00675 | 19.44019 | 38128 ft | 408 kts | 335° |
| 2026-05-05 10:16 | 42.06034 | 19.41494 | 38130 ft | 409 kts | 335° |
| 2026-05-05 10:16 | 42.11392 | 19.38952 | 38131 ft | 409 kts | 335° |
| 2026-05-05 10:17 | 42.16730 | 19.36414 | 38130 ft | 410 kts | 335° |
| 2026-05-05 10:17 | 42.22106 | 19.33853 | 38130 ft | 410 kts | 335° |
| 2026-05-05 10:18 | 42.27461 | 19.31202 | 38129 ft | 410 kts | 334° |
| 2026-05-05 10:18 | 42.32794 | 19.28454 | 38129 ft | 411 kts | 334° |
| 2026-05-05 10:19 | 42.38109 | 19.25730 | 38135 ft | 411 kts | 334° |
| 2026-05-05 10:19 | 42.43408 | 19.22832 | 38130 ft | 410 kts | 332° |
| 2026-05-05 10:20 | 42.48658 | 19.19781 | 38134 ft | 411 kts | 332° |
| 2026-05-05 10:20 | 42.53928 | 19.16751 | 38133 ft | 412 kts | 332° |
| 2026-05-05 10:21 | 42.59212 | 19.13728 | 38130 ft | 413 kts | 333° |
| 2026-05-05 10:21 | 42.64474 | 19.10715 | 38132 ft | 413 kts | 333° |
| 2026-05-05 10:22 | 42.69774 | 19.07675 | 38125 ft | 414 kts | 333° |
| 2026-05-05 10:22 | 42.75091 | 19.04618 | 38129 ft | 414 kts | 333° |
| 2026-05-05 10:23 | 42.80367 | 19.01579 | 38121 ft | 415 kts | 333° |
| 2026-05-05 10:23 | 42.85680 | 18.98512 | 38114 ft | 415 kts | 333° |
| 2026-05-05 10:24 | 42.91001 | 18.95436 | 38110 ft | 416 kts | 333° |
| 2026-05-05 10:24 | 42.96327 | 18.92353 | 38109 ft | 416 kts | 333° |
| 2026-05-05 10:25 | 43.01651 | 18.89264 | 38107 ft | 416 kts | 333° |
| 2026-05-05 10:25 | 43.06960 | 18.86178 | 38103 ft | 416 kts | 333° |
| 2026-05-05 10:26 | 43.12283 | 18.83080 | 38095 ft | 416 kts | 333° |
| 2026-05-05 10:26 | 43.17609 | 18.79971 | 38083 ft | 416 kts | 333° |
| 2026-05-05 10:27 | 43.22891 | 18.76883 | 38068 ft | 416 kts | 333° |
| 2026-05-05 10:27 | 43.28285 | 18.73722 | 38091 ft | 420 kts | 333° |
| 2026-05-05 10:28 | 43.33602 | 18.70605 | 38084 ft | 418 kts | 333° |
| 2026-05-05 10:28 | 43.39077 | 18.67838 | 38078 ft | 421 kts | 336° |
| 2026-05-05 10:29 | 43.44618 | 18.65184 | 38076 ft | 421 kts | 336° |
| 2026-05-05 10:29 | 43.50143 | 18.62529 | 38077 ft | 422 kts | 336° |
| 2026-05-05 10:30 | 43.55657 | 18.59872 | 38073 ft | 422 kts | 336° |
| 2026-05-05 10:30 | 43.61201 | 18.57197 | 38068 ft | 422 kts | 336° |
| 2026-05-05 10:31 | 43.66758 | 18.54510 | 38069 ft | 423 kts | 336° |
| 2026-05-05 10:31 | 43.72322 | 18.51814 | 38061 ft | 425 kts | 336° |
| 2026-05-05 10:32 | 43.77866 | 18.49122 | 38067 ft | 425 kts | 336° |
| 2026-05-05 10:32 | 43.83433 | 18.46414 | 38049 ft | 423 kts | 336° |
| 2026-05-05 10:33 | 43.88991 | 18.43706 | 38048 ft | 424 kts | 337° |
| 2026-05-05 10:33 | 43.94551 | 18.40990 | 38047 ft | 424 kts | 336° |
| 2026-05-05 10:34 | 44.00116 | 18.38267 | 38047 ft | 424 kts | 336° |
| 2026-05-05 10:34 | 44.05657 | 18.35550 | 38051 ft | 425 kts | 337° |
| 2026-05-05 10:35 | 44.11245 | 18.32804 | 38054 ft | 426 kts | 337° |
| 2026-05-05 10:35 | 44.16832 | 18.30055 | 38040 ft | 426 kts | 337° |
| 2026-05-05 10:36 | 44.22409 | 18.27304 | 38031 ft | 424 kts | 337° |
| 2026-05-05 10:36 | 44.27933 | 18.24574 | 38032 ft | 426 kts | 337° |
| 2026-05-05 10:37 | 44.33527 | 18.21802 | 38028 ft | 426 kts | 337° |
| 2026-05-05 10:37 | 44.39112 | 18.19030 | 38026 ft | 426 kts | 337° |
| 2026-05-05 10:38 | 44.44684 | 18.16260 | 38018 ft | 424 kts | 337° |
| 2026-05-05 10:38 | 44.50243 | 18.13492 | 38008 ft | 424 kts | 337° |
| 2026-05-05 10:39 | 44.55761 | 18.10737 | 37993 ft | 424 kts | 337° |
| 2026-05-05 10:39 | 44.61321 | 18.07955 | 38014 ft | 427 kts | 337° |
| 2026-05-05 10:40 | 44.66913 | 18.05151 | 38016 ft | 426 kts | 337° |
| 2026-05-05 10:40 | 44.72512 | 18.02339 | 38005 ft | 427 kts | 337° |
| 2026-05-05 10:41 | 44.78077 | 17.99537 | 38001 ft | 427 kts | 337° |
| 2026-05-05 10:41 | 44.83663 | 17.96720 | 38005 ft | 427 kts | 337° |
| 2026-05-05 10:42 | 44.92041 | 17.92483 | 37987 ft | 426 kts | 337° |
| 2026-05-05 10:43 | 44.97631 | 17.89649 | 38001 ft | 426 kts | 337° |
| 2026-05-05 10:43 | 45.03170 | 17.86835 | 37986 ft | 426 kts | 337° |
| 2026-05-05 10:44 | 45.08648 | 17.83698 | 37987 ft | 425 kts | 334° |
| 2026-05-05 10:44 | 45.14119 | 17.80495 | 37987 ft | 426 kts | 334° |
| 2026-05-05 10:45 | 45.19599 | 17.77278 | 37988 ft | 426 kts | 334° |
| 2026-05-05 10:45 | 45.25074 | 17.74047 | 37995 ft | 427 kts | 334° |
| 2026-05-05 10:46 | 45.30526 | 17.70824 | 37997 ft | 427 kts | 334° |
| 2026-05-05 10:46 | 45.36025 | 17.67565 | 37994 ft | 428 kts | 334° |
| 2026-05-05 10:47 | 45.41522 | 17.64300 | 37997 ft | 429 kts | 334° |
| 2026-05-05 10:47 | 45.47039 | 17.61016 | 37996 ft | 430 kts | 334° |
| 2026-05-05 10:48 | 45.52532 | 17.57740 | 38002 ft | 431 kts | 334° |
| 2026-05-05 10:48 | 45.58055 | 17.54438 | 37997 ft | 431 kts | 334° |
| 2026-05-05 10:49 | 45.63585 | 17.51125 | 38009 ft | 431 kts | 334° |
| 2026-05-05 10:49 | 45.69086 | 17.47824 | 38006 ft | 431 kts | 334° |
| 2026-05-05 10:50 | 45.74617 | 17.44497 | 38003 ft | 431 kts | 334° |
| 2026-05-05 10:50 | 45.80144 | 17.41165 | 37994 ft | 431 kts | 334° |
| 2026-05-05 10:51 | 45.85675 | 17.37823 | 37996 ft | 431 kts | 334° |
| 2026-05-05 10:51 | 45.91203 | 17.34476 | 37991 ft | 431 kts | 334° |
| 2026-05-05 10:52 | 45.96691 | 17.31145 | 37981 ft | 431 kts | 334° |
| 2026-05-05 10:52 | 46.02222 | 17.27765 | 37982 ft | 431 kts | 334° |
| 2026-05-05 10:53 | 46.07724 | 17.24339 | 37979 ft | 431 kts | 334° |
| 2026-05-05 10:53 | 46.13234 | 17.20905 | 37979 ft | 432 kts | 334° |
| 2026-05-05 10:54 | 46.18717 | 17.17486 | 37979 ft | 432 kts | 334° |
| 2026-05-05 10:54 | 46.24234 | 17.14039 | 37970 ft | 432 kts | 334° |
| 2026-05-05 10:55 | 46.29756 | 17.10582 | 37971 ft | 433 kts | 334° |
| 2026-05-05 10:55 | 46.35262 | 17.07126 | 37971 ft | 433 kts | 334° |
| 2026-05-05 10:56 | 46.40809 | 17.03637 | 37964 ft | 433 kts | 334° |
| 2026-05-05 10:56 | 46.46297 | 17.00178 | 37967 ft | 433 kts | 334° |
| 2026-05-05 10:57 | 46.51820 | 16.96689 | 37965 ft | 434 kts | 334° |
| 2026-05-05 10:57 | 46.57359 | 16.93181 | 37963 ft | 434 kts | 334° |
| 2026-05-05 10:57 | 46.60096 | 16.91446 | 38111 ft | 432 kts | 333° |
| 2026-05-05 10:58 | 46.62863 | 16.89689 | 38365 ft | 434 kts | 333° |
| 2026-05-05 10:58 | 46.68371 | 16.86187 | 38015 ft | 433 kts | 333° |
| 2026-05-05 10:59 | 46.73885 | 16.82672 | 37953 ft | 434 kts | 333° |
| 2026-05-05 10:59 | 46.79419 | 16.79137 | 37943 ft | 434 kts | 333° |
| 2026-05-05 11:00 | 46.84943 | 16.75600 | 37940 ft | 434 kts | 333° |
| 2026-05-05 11:00 | 46.90477 | 16.72050 | 37928 ft | 434 kts | 333° |
| 2026-05-05 11:01 | 46.95966 | 16.68520 | 37921 ft | 434 kts | 333° |
| 2026-05-05 11:01 | 47.01496 | 16.64953 | 37911 ft | 434 kts | 333° |
| 2026-05-05 11:02 | 47.07003 | 16.61396 | 38123 ft | 435 kts | 333° |
| 2026-05-05 11:02 | 47.09772 | 16.59605 | 38259 ft | 435 kts | 333° |
| 2026-05-05 11:02 | 47.12538 | 16.57813 | 38392 ft | 435 kts | 333° |
| 2026-05-05 11:02 | 47.15300 | 16.56020 | 38542 ft | 435 kts | 333° |
| 2026-05-05 11:03 | 47.18075 | 16.54218 | 38655 ft | 435 kts | 333° |
| 2026-05-05 11:03 | 47.20842 | 16.52420 | 38769 ft | 435 kts | 333° |
| 2026-05-05 11:03 | 47.23608 | 16.50620 | 38881 ft | 436 kts | 333° |
| 2026-05-05 11:03 | 47.26387 | 16.48809 | 38998 ft | 436 kts | 333° |
| 2026-05-05 11:04 | 47.29126 | 16.47023 | 39111 ft | 436 kts | 333° |
| 2026-05-05 11:04 | 47.31895 | 16.45213 | 39223 ft | 437 kts | 333° |
| 2026-05-05 11:04 | 47.34678 | 16.43389 | 39339 ft | 437 kts | 333° |
| 2026-05-05 11:04 | 47.37461 | 16.41565 | 39453 ft | 438 kts | 333° |
| 2026-05-05 11:05 | 47.40238 | 16.39743 | 39581 ft | 438 kts | 333° |
| 2026-05-05 11:05 | 47.43024 | 16.37913 | 39689 ft | 438 kts | 333° |
| 2026-05-05 11:05 | 47.45816 | 16.36077 | 39814 ft | 438 kts | 333° |
| 2026-05-05 11:05 | 47.48594 | 16.34249 | 39926 ft | 438 kts | 333° |
| 2026-05-05 11:06 | 47.51387 | 16.32407 | 40046 ft | 439 kts | 333° |
| 2026-05-05 11:06 | 47.54136 | 16.30592 | 40171 ft | 439 kts | 332° |
| 2026-05-05 11:06 | 47.56926 | 16.28749 | 40279 ft | 439 kts | 333° |
| 2026-05-05 11:06 | 47.59723 | 16.26899 | 40396 ft | 440 kts | 333° |
| 2026-05-05 11:07 | 47.62514 | 16.25052 | 40525 ft | 440 kts | 333° |
| 2026-05-05 11:07 | 47.65313 | 16.23197 | 40643 ft | 441 kts | 333° |
| 2026-05-05 11:07 | 47.68116 | 16.21335 | 40768 ft | 441 kts | 333° |
| 2026-05-05 11:07 | 47.70921 | 16.19471 | 40886 ft | 442 kts | 333° |
| 2026-05-05 11:08 | 47.73722 | 16.17607 | 41015 ft | 442 kts | 333° |
| 2026-05-05 11:08 | 47.76495 | 16.15760 | 41138 ft | 442 kts | 333° |
| 2026-05-05 11:08 | 47.79312 | 16.13881 | 41266 ft | 442 kts | 333° |
| 2026-05-05 11:08 | 47.82124 | 16.12004 | 41394 ft | 443 kts | 333° |
| 2026-05-05 11:09 | 47.84908 | 16.10143 | 41520 ft | 443 kts | 333° |
| 2026-05-05 11:09 | 47.87733 | 16.08252 | 41652 ft | 443 kts | 333° |
| 2026-05-05 11:09 | 47.90541 | 16.06370 | 41652 ft | 442 kts | 333° |
| 2026-05-05 11:09 | 47.93333 | 16.04497 | 41385 ft | 438 kts | 333° |
| 2026-05-05 11:10 | 47.95942 | 16.02746 | 40921 ft | 436 kts | 332° |
| 2026-05-05 11:10 | 47.98695 | 16.00895 | 40312 ft | 436 kts | 333° |
| 2026-05-05 11:10 | 48.01460 | 15.99033 | 39685 ft | 435 kts | 333° |
| 2026-05-05 11:10 | 48.04220 | 15.97172 | 39063 ft | 435 kts | 333° |
| 2026-05-05 11:11 | 48.06978 | 15.95311 | 38443 ft | 434 kts | 332° |
| 2026-05-05 11:11 | 48.09715 | 15.93461 | 37920 ft | 430 kts | 333° |
| 2026-05-05 11:11 | 48.12452 | 15.91609 | 37814 ft | 435 kts | 332° |
| 2026-05-05 11:12 | 48.18034 | 15.87822 | 37810 ft | 441 kts | 333° |
| 2026-05-05 11:12 | 48.23618 | 15.84032 | 37809 ft | 440 kts | 332° |
| 2026-05-05 11:13 | 48.29161 | 15.80258 | 37810 ft | 441 kts | 332° |
| 2026-05-05 11:13 | 48.34741 | 15.76449 | 37813 ft | 441 kts | 332° |
| 2026-05-05 11:14 | 48.40337 | 15.72620 | 37814 ft | 442 kts | 332° |
| 2026-05-05 11:14 | 48.45935 | 15.68781 | 37820 ft | 442 kts | 332° |
| 2026-05-05 11:15 | 48.51521 | 15.64940 | 37826 ft | 442 kts | 332° |
| 2026-05-05 11:15 | 48.57088 | 15.61103 | 37826 ft | 443 kts | 332° |
| 2026-05-05 11:16 | 48.62697 | 15.57228 | 37828 ft | 443 kts | 332° |
| 2026-05-05 11:16 | 48.68290 | 15.53353 | 37829 ft | 443 kts | 332° |
| 2026-05-05 11:17 | 48.73864 | 15.49483 | 37834 ft | 443 kts | 332° |
| 2026-05-05 11:17 | 48.79465 | 15.45586 | 37832 ft | 443 kts | 332° |
| 2026-05-05 11:18 | 48.85065 | 15.41678 | 37835 ft | 443 kts | 332° |
| 2026-05-05 11:18 | 48.90649 | 15.37765 | 37834 ft | 442 kts | 331° |
| 2026-05-05 11:19 | 48.96120 | 15.33627 | 37831 ft | 441 kts | 329° |
| 2026-05-05 11:19 | 49.01596 | 15.29429 | 37815 ft | 441 kts | 330° |
| 2026-05-05 11:20 | 49.07081 | 15.25253 | 37821 ft | 441 kts | 330° |
| 2026-05-05 11:20 | 49.12559 | 15.21085 | 37813 ft | 440 kts | 330° |
| 2026-05-05 11:21 | 49.18041 | 15.16902 | 37815 ft | 440 kts | 330° |
| 2026-05-05 11:21 | 49.23504 | 15.12724 | 37812 ft | 440 kts | 330° |
| 2026-05-05 11:22 | 49.28960 | 15.08540 | 37812 ft | 440 kts | 330° |
| 2026-05-05 11:22 | 49.34438 | 15.04328 | 37812 ft | 440 kts | 329° |
| 2026-05-05 11:23 | 49.39910 | 15.00113 | 37810 ft | 440 kts | 329° |
| 2026-05-05 11:23 | 49.45369 | 14.95895 | 37810 ft | 440 kts | 329° |
| 2026-05-05 11:24 | 49.50789 | 14.91697 | 37807 ft | 440 kts | 329° |
| 2026-05-05 11:24 | 49.56205 | 14.87492 | 37806 ft | 440 kts | 329° |
| 2026-05-05 11:25 | 49.61634 | 14.83264 | 37805 ft | 440 kts | 329° |
| 2026-05-05 11:25 | 49.67059 | 14.79030 | 37810 ft | 440 kts | 329° |
| 2026-05-05 11:26 | 49.72517 | 14.74761 | 37815 ft | 439 kts | 329° |
| 2026-05-05 11:26 | 49.77941 | 14.70508 | 37811 ft | 440 kts | 329° |
| 2026-05-05 11:27 | 49.83395 | 14.66219 | 37819 ft | 439 kts | 329° |
| 2026-05-05 11:27 | 49.88796 | 14.61962 | 37823 ft | 440 kts | 329° |
| 2026-05-05 11:28 | 49.94239 | 14.57660 | 37824 ft | 440 kts | 329° |
| 2026-05-05 11:28 | 49.99693 | 14.53338 | 37827 ft | 440 kts | 329° |
| 2026-05-05 11:29 | 50.05112 | 14.49034 | 37829 ft | 440 kts | 329° |
| 2026-05-05 11:29 | 50.10562 | 14.44694 | 37830 ft | 440 kts | 329° |
| 2026-05-05 11:30 | 50.16022 | 14.40334 | 37823 ft | 441 kts | 328° |
| 2026-05-05 11:30 | 50.21475 | 14.35970 | 37831 ft | 441 kts | 328° |
| 2026-05-05 11:31 | 50.26920 | 14.31599 | 37831 ft | 441 kts | 328° |
| 2026-05-05 11:31 | 50.32340 | 14.27238 | 37817 ft | 441 kts | 328° |
| 2026-05-05 11:32 | 50.37789 | 14.22842 | 37829 ft | 441 kts | 328° |
| 2026-05-05 11:32 | 50.43244 | 14.18430 | 37829 ft | 441 kts | 328° |
| 2026-05-05 11:33 | 50.48690 | 14.14015 | 37833 ft | 441 kts | 328° |
| 2026-05-05 11:33 | 50.54095 | 14.09619 | 37833 ft | 440 kts | 328° |
| 2026-05-05 11:34 | 50.59537 | 14.05183 | 37837 ft | 440 kts | 328° |
| 2026-05-05 11:34 | 50.64975 | 14.00739 | 37834 ft | 440 kts | 328° |
| 2026-05-05 11:35 | 50.70399 | 13.96294 | 37842 ft | 440 kts | 328° |
| 2026-05-05 11:35 | 50.75831 | 13.91832 | 37841 ft | 439 kts | 328° |
| 2026-05-05 11:36 | 50.81153 | 13.87248 | 37849 ft | 436 kts | 322° |
| 2026-05-05 11:36 | 50.86116 | 13.81827 | 37851 ft | 434 kts | 321° |
| 2026-05-05 11:37 | 50.91100 | 13.76419 | 37849 ft | 434 kts | 321° |
| 2026-05-05 11:37 | 50.96070 | 13.70999 | 37850 ft | 434 kts | 320° |
| 2026-05-05 11:38 | 51.01030 | 13.65565 | 37851 ft | 433 kts | 320° |
| 2026-05-05 11:38 | 51.05963 | 13.60143 | 37854 ft | 434 kts | 320° |
| 2026-05-05 11:38 | 51.08437 | 13.57420 | 38007 ft | 434 kts | 320° |
| 2026-05-05 11:39 | 51.10920 | 13.54682 | 38449 ft | 433 kts | 320° |
| 2026-05-05 11:39 | 51.13395 | 13.51950 | 38681 ft | 436 kts | 320° |
| 2026-05-05 11:39 | 51.15900 | 13.49179 | 38656 ft | 436 kts | 320° |
| 2026-05-05 11:39 | 51.18350 | 13.46469 | 38423 ft | 435 kts | 320° |
| 2026-05-05 11:40 | 51.20832 | 13.43720 | 38139 ft | 433 kts | 320° |
| 2026-05-05 11:40 | 51.23272 | 13.41013 | 37901 ft | 433 kts | 320° |
| 2026-05-05 11:40 | 51.25744 | 13.38264 | 37863 ft | 434 kts | 320° |
| 2026-05-05 11:41 | 51.30702 | 13.32740 | 37867 ft | 435 kts | 320° |
| 2026-05-05 11:41 | 51.35653 | 13.27213 | 37865 ft | 435 kts | 320° |
| 2026-05-05 11:42 | 51.40618 | 13.21656 | 37869 ft | 434 kts | 320° |
| 2026-05-05 11:42 | 51.45536 | 13.16134 | 37874 ft | 435 kts | 320° |
| 2026-05-05 11:43 | 51.50487 | 13.10561 | 37878 ft | 435 kts | 320° |
| 2026-05-05 11:43 | 51.55446 | 13.04964 | 37881 ft | 435 kts | 320° |
| 2026-05-05 11:44 | 51.60456 | 12.99471 | 37885 ft | 437 kts | 322° |
| 2026-05-05 11:44 | 51.65609 | 12.94254 | 37887 ft | 437 kts | 323° |
| 2026-05-05 11:45 | 51.70702 | 12.89051 | 37890 ft | 437 kts | 322° |
| 2026-05-05 11:45 | 51.75810 | 12.83768 | 37887 ft | 437 kts | 322° |
| 2026-05-05 11:46 | 51.80877 | 12.78502 | 37881 ft | 436 kts | 322° |
| 2026-05-05 11:46 | 51.85979 | 12.73186 | 37887 ft | 436 kts | 322° |
| 2026-05-05 11:47 | 51.91077 | 12.67860 | 37877 ft | 435 kts | 322° |
| 2026-05-05 11:47 | 51.96154 | 12.62542 | 37875 ft | 435 kts | 322° |
| 2026-05-05 11:48 | 52.03778 | 12.54528 | 37874 ft | 435 kts | 322° |
| 2026-05-05 11:48 | 52.08825 | 12.49205 | 37874 ft | 435 kts | 322° |
| 2026-05-05 11:49 | 52.13885 | 12.43853 | 37863 ft | 434 kts | 322° |
| 2026-05-05 11:49 | 52.18957 | 12.38475 | 37881 ft | 434 kts | 322° |
| 2026-05-05 11:50 | 52.23982 | 12.33131 | 37869 ft | 434 kts | 322° |
| 2026-05-05 11:50 | 52.29035 | 12.27742 | 37869 ft | 435 kts | 322° |
| 2026-05-05 11:51 | 52.34095 | 12.22330 | 37872 ft | 435 kts | 322° |
| 2026-05-05 11:51 | 52.39158 | 12.16900 | 37878 ft | 435 kts | 322° |
| 2026-05-05 11:52 | 52.44226 | 12.11448 | 37882 ft | 436 kts | 322° |
| 2026-05-05 11:52 | 52.49206 | 12.06079 | 37879 ft | 437 kts | 322° |
| 2026-05-05 11:53 | 52.54246 | 12.00628 | 37887 ft | 437 kts | 322° |
| 2026-05-05 11:53 | 52.59319 | 11.95127 | 37888 ft | 437 kts | 322° |
| 2026-05-05 11:54 | 52.64356 | 11.89513 | 37886 ft | 435 kts | 317° |
| 2026-05-05 11:54 | 52.69109 | 11.83462 | 37895 ft | 436 kts | 318° |
| 2026-05-05 11:55 | 52.73934 | 11.77380 | 37896 ft | 436 kts | 318° |
| 2026-05-05 11:55 | 52.78732 | 11.71295 | 37904 ft | 437 kts | 317° |
| 2026-05-05 11:56 | 52.83540 | 11.65174 | 37642 ft | 432 kts | 317° |
| 2026-05-05 11:56 | 52.85905 | 11.62159 | 37107 ft | 429 kts | 317° |
| 2026-05-05 11:56 | 52.88262 | 11.59148 | 36421 ft | 427 kts | 317° |
| 2026-05-05 11:57 | 52.90600 | 11.56155 | 35721 ft | 425 kts | 316° |
| 2026-05-05 11:57 | 52.92939 | 11.53159 | 35045 ft | 422 kts | 316° |
| 2026-05-05 11:57 | 52.95222 | 11.50231 | 34372 ft | 420 kts | 316° |
| 2026-05-05 11:57 | 52.97529 | 11.47269 | 33651 ft | 418 kts | 315° |
| 2026-05-05 11:58 | 52.99804 | 11.44343 | 32684 ft | 419 kts | 315° |
| 2026-05-05 11:58 | 53.02124 | 11.41347 | 31611 ft | 423 kts | 315° |
| 2026-05-05 11:58 | 53.04454 | 11.38335 | 30546 ft | 427 kts | 315° |
| 2026-05-05 11:58 | 53.06795 | 11.35314 | 29759 ft | 424 kts | 316° |
| 2026-05-05 11:59 | 53.09115 | 11.32333 | 29025 ft | 418 kts | 316° |
| 2026-05-05 11:59 | 53.11400 | 11.29392 | 28284 ft | 413 kts | 316° |
| 2026-05-05 11:59 | 53.13715 | 11.26640 | 27498 ft | 412 kts | 320° |
| 2026-05-05 11:59 | 53.16090 | 11.23920 | 26739 ft | 408 kts | 320° |
| 2026-05-05 12:00 | 53.18387 | 11.21270 | 26018 ft | 405 kts | 320° |
| 2026-05-05 12:00 | 53.20685 | 11.18609 | 25291 ft | 401 kts | 320° |
| 2026-05-05 12:00 | 53.22968 | 11.15962 | 24576 ft | 398 kts | 320° |
| 2026-05-05 12:00 | 53.25233 | 11.13333 | 23891 ft | 395 kts | 321° |
| 2026-05-05 12:01 | 53.27405 | 11.10577 | 23167 ft | 387 kts | 312° |
| 2026-05-05 12:01 | 53.29127 | 11.07212 | 22434 ft | 379 kts | 304° |
| 2026-05-05 12:01 | 53.30727 | 11.03757 | 21708 ft | 375 kts | 304° |
| 2026-05-05 12:01 | 53.32315 | 11.00306 | 21005 ft | 371 kts | 304° |
| 2026-05-05 12:02 | 53.33854 | 10.96942 | 20309 ft | 367 kts | 304° |
| 2026-05-05 12:02 | 53.35390 | 10.93569 | 19652 ft | 363 kts | 304° |
| 2026-05-05 12:02 | 53.36914 | 10.90207 | 18989 ft | 360 kts | 304° |
| 2026-05-05 12:02 | 53.38384 | 10.86850 | 18352 ft | 356 kts | 301° |
| 2026-05-05 12:03 | 53.39604 | 10.83276 | 17618 ft | 352 kts | 294° |
| 2026-05-05 12:03 | 53.40687 | 10.79624 | 16896 ft | 349 kts | 294° |
| 2026-05-05 12:03 | 53.41757 | 10.75990 | 16206 ft | 346 kts | 294° |
| 2026-05-05 12:03 | 53.42818 | 10.72370 | 15524 ft | 344 kts | 294° |
| 2026-05-05 12:04 | 53.43514 | 10.69982 | 15063 ft | 343 kts | 294° |
| 2026-05-05 12:04 | 53.44890 | 10.65237 | 14245 ft | 340 kts | 294° |
| 2026-05-05 12:04 | 53.45579 | 10.62840 | 13814 ft | 339 kts | 294° |
| 2026-05-05 12:04 | 53.46925 | 10.58138 | 12923 ft | 335 kts | 294° |
| 2026-05-05 12:05 | 53.47929 | 10.54622 | 12274 ft | 332 kts | 294° |
| 2026-05-05 12:05 | 53.48920 | 10.51151 | 11640 ft | 329 kts | 294° |
| 2026-05-05 12:05 | 53.49903 | 10.47710 | 11048 ft | 326 kts | 294° |
| 2026-05-05 12:05 | 53.50880 | 10.44296 | 10537 ft | 322 kts | 294° |
| 2026-05-05 12:06 | 53.51522 | 10.42064 | 10240 ft | 319 kts | 294° |
| 2026-05-05 12:06 | 53.52478 | 10.38695 | 9698 ft | 318 kts | 294° |
| 2026-05-05 12:06 | 53.53415 | 10.35417 | 9531 ft | 304 kts | 294° |
| 2026-05-05 12:06 | 53.54050 | 10.32115 | 9352 ft | 290 kts | 280° |
| 2026-05-05 12:07 | 53.53953 | 10.27785 | 9060 ft | 277 kts | 255° |
| 2026-05-05 12:07 | 53.53600 | 10.25692 | 8894 ft | 273 kts | 254° |
| 2026-05-05 12:07 | 53.53082 | 10.22637 | 8444 ft | 271 kts | 254° |
| 2026-05-05 12:07 | 53.52572 | 10.19652 | 7973 ft | 270 kts | 254° |
| 2026-05-05 12:08 | 53.52049 | 10.16618 | 7527 ft | 268 kts | 254° |
| 2026-05-05 12:08 | 53.51530 | 10.13610 | 7108 ft | 265 kts | 254° |
| 2026-05-05 12:08 | 53.51022 | 10.10684 | 6965 ft | 263 kts | 254° |
| 2026-05-05 12:08 | 53.50498 | 10.07686 | 6904 ft | 268 kts | 254° |
| 2026-05-05 12:09 | 53.49976 | 10.04700 | 6812 ft | 268 kts | 254° |
| 2026-05-05 12:09 | 53.49457 | 10.01730 | 6529 ft | 269 kts | 254° |
| 2026-05-05 12:09 | 53.48934 | 9.98747 | 6373 ft | 262 kts | 254° |
| 2026-05-05 12:09 | 53.48417 | 9.95824 | 5820 ft | 265 kts | 254° |
| 2026-05-05 12:10 | 53.47883 | 9.92796 | 5029 ft | 275 kts | 254° |
| 2026-05-05 12:10 | 53.47330 | 9.89661 | 4361 ft | 300 kts | 254° |
| 2026-05-05 12:10 | 53.46670 | 9.85909 | 4098 ft | 348 kts | 254° |
| 2026-05-05 12:10 | 53.46000 | 9.82085 | 3998 ft | 327 kts | 254° |
| 2026-05-05 12:11 | 53.45385 | 9.78599 | 3998 ft | 296 kts | 254° |
| 2026-05-05 12:11 | 53.44649 | 9.75570 | 3998 ft | 277 kts | 236° |
| 2026-05-05 12:11 | 53.43398 | 9.73329 | 4001 ft | 251 kts | 224° |
| 2026-05-05 12:11 | 53.42184 | 9.71419 | 3995 ft | 230 kts | 224° |
| 2026-05-05 12:12 | 53.40997 | 9.69554 | 3998 ft | 233 kts | 224° |
| 2026-05-05 12:12 | 53.39834 | 9.67728 | 3992 ft | 221 kts | 224° |
| 2026-05-05 12:12 | 53.38768 | 9.66064 | 3991 ft | 198 kts | 222° |
| 2026-05-05 12:12 | 53.37835 | 9.64547 | 3976 ft | 177 kts | 240° |
| 2026-05-05 12:13 | 53.37565 | 9.62549 | 3994 ft | 180 kts | 280° |
| 2026-05-05 12:13 | 53.38128 | 9.60772 | 3997 ft | 178 kts | 321° |
| 2026-05-05 12:13 | 53.39267 | 9.60052 | 3995 ft | 179 kts | 2° |
| 2026-05-05 12:13 | 53.40462 | 9.60634 | 3996 ft | 182 kts | 24° |
| 2026-05-05 12:14 | 53.41612 | 9.61506 | 3998 ft | 180 kts | 24° |
| 2026-05-05 12:14 | 53.42737 | 9.62369 | 4009 ft | 175 kts | 24° |
| 2026-05-05 12:14 | 53.43858 | 9.63230 | 4000 ft | 179 kts | 24° |
| 2026-05-05 12:14 | 53.44976 | 9.64088 | 4000 ft | 179 kts | 24° |
| 2026-05-05 12:15 | 53.46109 | 9.64960 | 4000 ft | 179 kts | 24° |
| 2026-05-05 12:15 | 53.47244 | 9.65835 | 4000 ft | 179 kts | 24° |
| 2026-05-05 12:15 | 53.48375 | 9.66709 | 3999 ft | 179 kts | 25° |
| 2026-05-05 12:15 | 53.49285 | 9.68099 | 4004 ft | 181 kts | 54° |
| 2026-05-05 12:16 | 53.49970 | 9.69874 | 3959 ft | 181 kts | 57° |
| 2026-05-05 12:16 | 53.50636 | 9.71635 | 3792 ft | 179 kts | 57° |
| 2026-05-05 12:16 | 53.51320 | 9.73395 | 3554 ft | 177 kts | 56° |
| 2026-05-05 12:16 | 53.51996 | 9.75082 | 3315 ft | 176 kts | 55° |
| 2026-05-05 12:17 | 53.52688 | 9.76761 | 3082 ft | 173 kts | 54° |
| 2026-05-05 12:17 | 53.53383 | 9.78406 | 2845 ft | 169 kts | 53° |
| 2026-05-05 12:17 | 53.54057 | 9.79964 | 2618 ft | 166 kts | 53° |
| 2026-05-05 12:17 | 53.54737 | 9.81502 | 2393 ft | 164 kts | 53° |
| 2026-05-05 12:18 | 53.55431 | 9.83044 | 2165 ft | 163 kts | 52° |
| 2026-05-05 12:18 | 53.56125 | 9.84559 | 1933 ft | 159 kts | 52° |
| 2026-05-05 12:18 | 53.56821 | 9.86052 | 1723 ft | 165 kts | 51° |
| 2026-05-05 12:18 | 53.57517 | 9.87527 | 1501 ft | 163 kts | 51° |
| 2026-05-05 12:19 | 53.58185 | 9.88927 | 1308 ft | 142 kts | 52° |
| 2026-05-05 12:19 | 53.58694 | 9.90049 | 1187 ft | 123 kts | 52° |
| 2026-05-05 12:19 | 53.59208 | 9.91116 | 974 ft | 115 kts | 49° |
| 2026-05-05 12:19 | 53.59708 | 9.92125 | 778 ft | 109 kts | 51° |
| 2026-05-05 12:20 | 53.60200 | 9.93103 | 662 ft | 113 kts | 50° |
| 2026-05-05 12:20 | 53.60696 | 9.94099 | 482 ft | 110 kts | 52° |
| 2026-05-05 12:20 | 53.61188 | 9.95095 | 332 ft | 116 kts | 52° |
| 2026-05-05 12:20 | 53.61695 | 9.96114 | 138 ft | 111 kts | 51° |
| 2026-05-05 12:21 | 53.62164 | 9.97062 | 50 ft | 103 kts | 50° |
| 2026-05-05 12:21 | 53.62460 | 9.97630 | 44 ft | 0 kts | 46° |
| 2026-05-05 12:21 | 53.62516 | 9.97768 | 44 ft | 34 kts | 56° |
| 2026-05-05 12:21 | 53.62631 | 9.98015 | 46 ft | 23 kts | 52° |
| 2026-05-05 12:22 | 53.62737 | 9.98213 | 48 ft | 22 kts | 48° |
| 2026-05-05 12:22 | 53.62724 | 9.98377 | 47 ft | 12 kts | 142° |
| 2026-05-05 12:22 | 53.62699 | 9.98418 | 46 ft | 6 kts | 136° |
| 2026-05-05 12:22 | 53.62677 | 9.98497 | 46 ft | 10 kts | 90° |
| 2026-05-05 12:23 | 53.62714 | 9.98600 | 46 ft | 13 kts | 50° |
| 2026-05-05 12:23 | 53.62782 | 9.98737 | 46 ft | 18 kts | 50° |
| 2026-05-05 12:23 | 53.62869 | 9.98913 | 47 ft | 22 kts | 50° |
| 2026-05-05 12:23 | 53.62950 | 9.99084 | 47 ft | 13 kts | 51° |
| 2026-05-05 12:24 | 53.63011 | 9.99205 | 47 ft | 0 kts | 48° |
| 2026-05-05 12:24 | 53.63026 | 9.99233 | 47 ft | 6 kts | 47° |
| 2026-05-05 12:24 | 53.63049 | 9.99280 | 47 ft | 2 kts | 53° |
| 2026-05-05 12:24 | 53.63072 | 9.99331 | 47 ft | 9 kts | 54° |
| 2026-05-05 12:25 | 53.63114 | 9.99440 | 48 ft | 13 kts | 56° |
| 2026-05-05 12:25 | 53.63180 | 9.99582 | 47 ft | 14 kts | 50° |
| 2026-05-05 12:25 | 53.63189 | 9.99602 | 47 ft | 0 kts | 52° |
| 2026-05-05 12:26 | 53.63190 | 9.99605 | 47 ft | 4 kts | 54° |
| 2026-05-05 12:26 | 53.63215 | 9.99658 | 48 ft | 0 kts | 52° |
| 2026-05-05 12:28 | 53.63264 | 9.99736 | 49 ft | 11 kts | 40° |
| 2026-05-05 12:28 | 53.63265 | 9.99738 | 49 ft | 0 kts | 49° |
| 2026-05-05 12:28 | 53.63261 | 9.99732 | 49 ft | 0 kts | 88° |
| 2026-05-05 12:28 | 53.63254 | 9.99740 | 49 ft | 8 kts | 134° |
| 2026-05-05 12:29 | 53.63207 | 9.99779 | 48 ft | 17 kts | 154° |
| 2026-05-05 12:29 | 53.63162 | 9.99825 | 48 ft | 1 kts | 108° |
| 2026-05-05 12:29 | 53.63194 | 9.99866 | 48 ft | 15 kts | 37° |
| 2026-05-05 12:29 | 53.63232 | 9.99981 | 46 ft | 4 kts | 64° |
| 2026-05-05 12:30 | 53.63256 | 9.99991 | 49 ft | 1 kts | 338° |
| 2026-05-05 12:30 | 53.63268 | 9.99970 | 49 ft | 0 kts | 316° |
| 2026-05-05 12:30 | 53.63280 | 9.99952 | 49 ft | 0 kts | 319° |
| 2026-05-05 12:30 | 53.63279 | 9.99952 | 49 ft | 0 kts | 319° |